sensor_id;sensor_type;location;lat;lon;timestamp;temperature;humidity
37782;DHT22;23621;50.878;4.584;2023-04-25T00:00:57;16.20;62.80
37782;DHT22;23621;50.878;4.584;2023-04-25T00:03:45;16.20;62.60
37782;DHT22;23621;50.878;4.584;2023-04-25T00:06:36;16.20;62.70
37782;DHT22;23621;50.878;4.584;2023-04-25T00:09:23;16.20;62.70
37782;DHT22;23621;50.878;4.584;2023-04-25T00:12:11;16.20;62.50
37782;DHT22;23621;50.878;4.584;2023-04-25T00:14:58;16.20;62.50
37782;DHT22;23621;50.878;4.584;2023-04-25T00:17:47;16.20;62.60
37782;DHT22;23621;50.878;4.584;2023-04-25T00:20:35;16.20;62.50
37782;DHT22;23621;50.878;4.584;2023-04-25T00:23:23;16.30;62.70
37782;DHT22;23621;50.878;4.584;2023-04-25T00:26:11;16.30;62.60
37782;DHT22;23621;50.878;4.584;2023-04-25T00:28:58;16.30;62.70
37782;DHT22;23621;50.878;4.584;2023-04-25T00:31:46;16.30;62.60
37782;DHT22;23621;50.878;4.584;2023-04-25T00:34:36;16.20;62.50
37782;DHT22;23621;50.878;4.584;2023-04-25T00:37:24;16.20;62.80
37782;DHT22;23621;50.878;4.584;2023-04-25T00:40:11;16.20;62.90
37782;DHT22;23621;50.878;4.584;2023-04-25T00:42:58;16.20;62.70
37782;DHT22;23621;50.878;4.584;2023-04-25T00:45:47;16.20;62.90
37782;DHT22;23621;50.878;4.584;2023-04-25T00:48:35;16.10;63.00
37782;DHT22;23621;50.878;4.584;2023-04-25T00:51:22;16.10;63.40
37782;DHT22;23621;50.878;4.584;2023-04-25T00:54:11;16.10;63.40
37782;DHT22;23621;50.878;4.584;2023-04-25T00:56:59;16.10;63.40
37782;DHT22;23621;50.878;4.584;2023-04-25T00:59:48;16.10;63.40
37782;DHT22;23621;50.878;4.584;2023-04-25T01:02:37;16.10;63.50
37782;DHT22;23621;50.878;4.584;2023-04-25T01:05:25;16.10;63.50
37782;DHT22;23621;50.878;4.584;2023-04-25T01:08:13;16.10;63.50
37782;DHT22;23621;50.878;4.584;2023-04-25T01:11:00;16.10;63.60
37782;DHT22;23621;50.878;4.584;2023-04-25T01:13:48;16.10;63.80
37782;DHT22;23621;50.878;4.584;2023-04-25T01:16:35;16.10;63.90
37782;DHT22;23621;50.878;4.584;2023-04-25T01:19:24;16.10;64.10
37782;DHT22;23621;50.878;4.584;2023-04-25T01:22:11;16.10;64.20
37782;DHT22;23621;50.878;4.584;2023-04-25T01:24:59;16.10;64.40
37782;DHT22;23621;50.878;4.584;2023-04-25T01:27:47;16.10;64.30
37782;DHT22;23621;50.878;4.584;2023-04-25T01:30:34;16.10;64.50
37782;DHT22;23621;50.878;4.584;2023-04-25T01:33:22;16.10;64.60
37782;DHT22;23621;50.878;4.584;2023-04-25T01:36:09;16.10;64.80
37782;DHT22;23621;50.878;4.584;2023-04-25T01:38:57;16.00;64.90
37782;DHT22;23621;50.878;4.584;2023-04-25T01:41:46;16.00;65.00
37782;DHT22;23621;50.878;4.584;2023-04-25T01:44:33;16.00;65.20
37782;DHT22;23621;50.878;4.584;2023-04-25T01:47:20;16.00;65.20
37782;DHT22;23621;50.878;4.584;2023-04-25T01:50:08;16.00;65.30
37782;DHT22;23621;50.878;4.584;2023-04-25T01:52:56;15.90;65.30
37782;DHT22;23621;50.878;4.584;2023-04-25T01:55:43;15.90;65.30
37782;DHT22;23621;50.878;4.584;2023-04-25T01:58:31;16.00;65.60
37782;DHT22;23621;50.878;4.584;2023-04-25T02:01:18;15.90;65.60
37782;DHT22;23621;50.878;4.584;2023-04-25T02:04:05;16.00;65.70
37782;DHT22;23621;50.878;4.584;2023-04-25T02:06:53;16.00;65.60
37782;DHT22;23621;50.878;4.584;2023-04-25T02:09:40;15.90;65.40
37782;DHT22;23621;50.878;4.584;2023-04-25T02:12:28;15.90;65.60
37782;DHT22;23621;50.878;4.584;2023-04-25T02:15:15;15.90;65.60
37782;DHT22;23621;50.878;4.584;2023-04-25T02:18:03;15.90;65.70
37782;DHT22;23621;50.878;4.584;2023-04-25T02:20:50;15.80;65.90
37782;DHT22;23621;50.878;4.584;2023-04-25T02:23:38;15.80;66.10
37782;DHT22;23621;50.878;4.584;2023-04-25T02:26:25;15.70;66.00
37782;DHT22;23621;50.878;4.584;2023-04-25T02:29:12;15.60;65.20
37782;DHT22;23621;50.878;4.584;2023-04-25T02:32:02;15.60;64.90
37782;DHT22;23621;50.878;4.584;2023-04-25T02:34:49;15.60;64.80
37782;DHT22;23621;50.878;4.584;2023-04-25T02:37:37;15.70;64.80
37782;DHT22;23621;50.878;4.584;2023-04-25T02:40:25;15.70;64.80
37782;DHT22;23621;50.878;4.584;2023-04-25T02:43:12;15.80;64.90
37782;DHT22;23621;50.878;4.584;2023-04-25T02:46:00;15.70;64.90
37782;DHT22;23621;50.878;4.584;2023-04-25T02:48:47;15.70;64.90
37782;DHT22;23621;50.878;4.584;2023-04-25T02:51:34;15.80;65.00
37782;DHT22;23621;50.878;4.584;2023-04-25T02:54:22;15.80;65.00
37782;DHT22;23621;50.878;4.584;2023-04-25T02:57:09;15.80;65.10
37782;DHT22;23621;50.878;4.584;2023-04-25T02:59:56;15.80;65.30
37782;DHT22;23621;50.878;4.584;2023-04-25T03:02:44;15.90;65.40
37782;DHT22;23621;50.878;4.584;2023-04-25T03:05:32;15.90;65.60
37782;DHT22;23621;50.878;4.584;2023-04-25T03:08:19;15.90;65.80
37782;DHT22;23621;50.878;4.584;2023-04-25T03:11:06;15.80;65.90
37782;DHT22;23621;50.878;4.584;2023-04-25T03:13:54;15.80;66.10
37782;DHT22;23621;50.878;4.584;2023-04-25T03:16:41;15.70;65.90
37782;DHT22;23621;50.878;4.584;2023-04-25T03:19:28;15.70;65.90
37782;DHT22;23621;50.878;4.584;2023-04-25T03:22:16;15.70;66.10
37782;DHT22;23621;50.878;4.584;2023-04-25T03:25:03;15.70;66.20
37782;DHT22;23621;50.878;4.584;2023-04-25T03:27:51;15.70;66.40
37782;DHT22;23621;50.878;4.584;2023-04-25T03:30:39;15.60;66.20
37782;DHT22;23621;50.878;4.584;2023-04-25T03:33:26;15.60;65.90
37782;DHT22;23621;50.878;4.584;2023-04-25T03:36:14;15.70;65.70
37782;DHT22;23621;50.878;4.584;2023-04-25T03:39:01;15.50;65.00
37782;DHT22;23621;50.878;4.584;2023-04-25T03:41:48;15.50;64.20
37782;DHT22;23621;50.878;4.584;2023-04-25T03:44:35;15.50;63.90
37782;DHT22;23621;50.878;4.584;2023-04-25T03:47:23;15.50;63.70
37782;DHT22;23621;50.878;4.584;2023-04-25T03:50:10;15.40;63.60
37782;DHT22;23621;50.878;4.584;2023-04-25T03:52:57;15.40;63.60
37782;DHT22;23621;50.878;4.584;2023-04-25T03:55:45;15.40;63.50
37782;DHT22;23621;50.878;4.584;2023-04-25T03:58:32;15.40;63.60
37782;DHT22;23621;50.878;4.584;2023-04-25T04:01:19;15.30;63.70
37782;DHT22;23621;50.878;4.584;2023-04-25T04:04:07;15.30;63.80
37782;DHT22;23621;50.878;4.584;2023-04-25T04:06:55;15.30;63.70
37782;DHT22;23621;50.878;4.584;2023-04-25T04:09:42;15.30;63.50
37782;DHT22;23621;50.878;4.584;2023-04-25T04:12:29;15.30;63.50
37782;DHT22;23621;50.878;4.584;2023-04-25T04:15:16;15.30;63.50
37782;DHT22;23621;50.878;4.584;2023-04-25T04:18:04;15.30;63.40
37782;DHT22;23621;50.878;4.584;2023-04-25T04:20:51;15.20;63.40
37782;DHT22;23621;50.878;4.584;2023-04-25T04:23:38;15.20;63.20
37782;DHT22;23621;50.878;4.584;2023-04-25T04:26:26;15.20;63.30
37782;DHT22;23621;50.878;4.584;2023-04-25T04:29:13;15.20;63.20
37782;DHT22;23621;50.878;4.584;2023-04-25T04:32:08;15.20;63.30
37782;DHT22;23621;50.878;4.584;2023-04-25T04:34:55;15.20;63.20
37782;DHT22;23621;50.878;4.584;2023-04-25T04:37:43;15.20;63.40
37782;DHT22;23621;50.878;4.584;2023-04-25T04:40:32;15.20;63.90
37782;DHT22;23621;50.878;4.584;2023-04-25T04:43:20;15.10;64.20
37782;DHT22;23621;50.878;4.584;2023-04-25T04:46:07;15.10;64.60
37782;DHT22;23621;50.878;4.584;2023-04-25T04:48:54;15.10;64.90
37782;DHT22;23621;50.878;4.584;2023-04-25T04:51:43;15.10;65.10
37782;DHT22;23621;50.878;4.584;2023-04-25T04:54:34;15.10;65.30
37782;DHT22;23621;50.878;4.584;2023-04-25T04:57:22;15.00;65.20
37782;DHT22;23621;50.878;4.584;2023-04-25T05:00:11;15.00;65.00
37782;DHT22;23621;50.878;4.584;2023-04-25T05:02:59;15.00;65.00
37782;DHT22;23621;50.878;4.584;2023-04-25T05:05:46;15.00;65.00
37782;DHT22;23621;50.878;4.584;2023-04-25T05:08:33;15.00;65.20
37782;DHT22;23621;50.878;4.584;2023-04-25T05:11:22;14.90;65.10
37782;DHT22;23621;50.878;4.584;2023-04-25T05:14:10;15.00;65.40
37782;DHT22;23621;50.878;4.584;2023-04-25T05:16:57;14.90;65.40
37782;DHT22;23621;50.878;4.584;2023-04-25T05:19:45;14.90;65.70
37782;DHT22;23621;50.878;4.584;2023-04-25T05:22:33;14.90;65.70
37782;DHT22;23621;50.878;4.584;2023-04-25T05:25:20;14.90;65.70
37782;DHT22;23621;50.878;4.584;2023-04-25T05:28:08;14.90;65.40
37782;DHT22;23621;50.878;4.584;2023-04-25T05:30:56;14.90;65.90
37782;DHT22;23621;50.878;4.584;2023-04-25T05:33:44;14.90;65.40
37782;DHT22;23621;50.878;4.584;2023-04-25T05:36:31;14.90;65.20
37782;DHT22;23621;50.878;4.584;2023-04-25T05:39:19;14.90;65.20
37782;DHT22;23621;50.878;4.584;2023-04-25T05:42:06;14.90;65.20
37782;DHT22;23621;50.878;4.584;2023-04-25T05:44:54;15.00;65.50
37782;DHT22;23621;50.878;4.584;2023-04-25T05:47:41;15.00;65.60
37782;DHT22;23621;50.878;4.584;2023-04-25T05:50:28;15.00;65.30
37782;DHT22;23621;50.878;4.584;2023-04-25T05:53:16;15.00;66.20
37782;DHT22;23621;50.878;4.584;2023-04-25T05:56:04;15.00;65.80
37782;DHT22;23621;50.878;4.584;2023-04-25T05:58:51;15.00;66.00
37782;DHT22;23621;50.878;4.584;2023-04-25T06:01:38;15.00;66.20
37782;DHT22;23621;50.878;4.584;2023-04-25T06:04:26;15.00;66.50
37782;DHT22;23621;50.878;4.584;2023-04-25T06:07:13;15.10;66.60
37782;DHT22;23621;50.878;4.584;2023-04-25T06:10:01;15.10;66.80
37782;DHT22;23621;50.878;4.584;2023-04-25T06:12:49;15.10;66.80
37782;DHT22;23621;50.878;4.584;2023-04-25T06:15:36;15.10;67.00
37782;DHT22;23621;50.878;4.584;2023-04-25T06:18:23;15.10;66.90
37782;DHT22;23621;50.878;4.584;2023-04-25T06:21:10;15.10;66.80
37782;DHT22;23621;50.878;4.584;2023-04-25T06:23:58;15.10;67.00
37782;DHT22;23621;50.878;4.584;2023-04-25T06:26:45;15.20;67.00
37782;DHT22;23621;50.878;4.584;2023-04-25T06:29:34;15.10;66.80
37782;DHT22;23621;50.878;4.584;2023-04-25T06:32:21;15.20;66.80
37782;DHT22;23621;50.878;4.584;2023-04-25T06:35:09;15.20;66.80
37782;DHT22;23621;50.878;4.584;2023-04-25T06:37:57;15.20;66.50
37782;DHT22;23621;50.878;4.584;2023-04-25T06:40:44;15.30;66.20
37782;DHT22;23621;50.878;4.584;2023-04-25T06:43:31;15.30;66.40
37782;DHT22;23621;50.878;4.584;2023-04-25T06:46:20;15.40;66.10
37782;DHT22;23621;50.878;4.584;2023-04-25T06:49:07;15.40;65.70
37782;DHT22;23621;50.878;4.584;2023-04-25T06:51:55;15.50;65.70
37782;DHT22;23621;50.878;4.584;2023-04-25T06:54:42;15.50;65.40
37782;DHT22;23621;50.878;4.584;2023-04-25T06:57:29;15.60;65.70
37782;DHT22;23621;50.878;4.584;2023-04-25T07:00:17;15.70;65.60
37782;DHT22;23621;50.878;4.584;2023-04-25T07:03:04;15.70;65.30
37782;DHT22;23621;50.878;4.584;2023-04-25T07:05:52;15.60;64.80
37782;DHT22;23621;50.878;4.584;2023-04-25T07:08:39;15.60;64.90
37782;DHT22;23621;50.878;4.584;2023-04-25T07:11:27;15.50;64.90
37782;DHT22;23621;50.878;4.584;2023-04-25T07:14:14;15.60;65.20
37782;DHT22;23621;50.878;4.584;2023-04-25T07:17:02;15.60;65.10
37782;DHT22;23621;50.878;4.584;2023-04-25T07:19:49;15.70;65.10
37782;DHT22;23621;50.878;4.584;2023-04-25T07:22:36;15.80;65.10
37782;DHT22;23621;50.878;4.584;2023-04-25T07:25:23;15.80;65.10
37782;DHT22;23621;50.878;4.584;2023-04-25T07:28:12;15.90;64.90
37782;DHT22;23621;50.878;4.584;2023-04-25T07:30:59;15.90;64.50
37782;DHT22;23621;50.878;4.584;2023-04-25T07:33:46;15.90;64.50
37782;DHT22;23621;50.878;4.584;2023-04-25T07:36:34;16.00;64.60
37782;DHT22;23621;50.878;4.584;2023-04-25T07:39:21;16.00;64.60
37782;DHT22;23621;50.878;4.584;2023-04-25T07:42:10;16.10;64.10
37782;DHT22;23621;50.878;4.584;2023-04-25T07:44:57;16.10;64.20
37782;DHT22;23621;50.878;4.584;2023-04-25T07:47:44;16.10;64.10
37782;DHT22;23621;50.878;4.584;2023-04-25T07:50:31;16.20;64.10
37782;DHT22;23621;50.878;4.584;2023-04-25T07:53:19;16.20;63.80
37782;DHT22;23621;50.878;4.584;2023-04-25T07:56:06;16.30;63.70
37782;DHT22;23621;50.878;4.584;2023-04-25T07:58:53;16.30;63.40
37782;DHT22;23621;50.878;4.584;2023-04-25T08:01:41;16.40;63.10
37782;DHT22;23621;50.878;4.584;2023-04-25T08:04:28;16.40;62.90
37782;DHT22;23621;50.878;4.584;2023-04-25T08:07:16;16.50;62.80
37782;DHT22;23621;50.878;4.584;2023-04-25T08:10:03;16.60;62.90
37782;DHT22;23621;50.878;4.584;2023-04-25T08:12:51;16.70;62.60
37782;DHT22;23621;50.878;4.584;2023-04-25T08:15:39;16.70;62.60
37782;DHT22;23621;50.878;4.584;2023-04-25T08:18:26;16.50;61.10
37782;DHT22;23621;50.878;4.584;2023-04-25T08:21:13;16.40;61.10
37782;DHT22;23621;50.878;4.584;2023-04-25T08:24:02;16.30;61.00
37782;DHT22;23621;50.878;4.584;2023-04-25T08:26:49;16.10;60.70
37782;DHT22;23621;50.878;4.584;2023-04-25T08:29:36;16.00;60.80
37782;DHT22;23621;50.878;4.584;2023-04-25T08:32:24;15.90;60.10
37782;DHT22;23621;50.878;4.584;2023-04-25T08:35:11;15.90;59.90
37782;DHT22;23621;50.878;4.584;2023-04-25T08:37:58;15.90;59.80
37782;DHT22;23621;50.878;4.584;2023-04-25T08:40:49;16.00;60.00
37782;DHT22;23621;50.878;4.584;2023-04-25T08:43:37;16.10;59.70
37782;DHT22;23621;50.878;4.584;2023-04-25T08:46:28;16.10;59.80
37782;DHT22;23621;50.878;4.584;2023-04-25T08:49:18;16.20;60.10
37782;DHT22;23621;50.878;4.584;2023-04-25T08:52:06;16.30;59.70
37782;DHT22;23621;50.878;4.584;2023-04-25T08:54:55;16.40;59.30
37782;DHT22;23621;50.878;4.584;2023-04-25T08:57:43;16.40;59.10
37782;DHT22;23621;50.878;4.584;2023-04-25T09:00:31;16.40;58.60
37782;DHT22;23621;50.878;4.584;2023-04-25T09:03:19;16.30;58.30
37782;DHT22;23621;50.878;4.584;2023-04-25T09:06:09;16.30;58.40
37782;DHT22;23621;50.878;4.584;2023-04-25T09:09:08;16.40;58.80
37782;DHT22;23621;50.878;4.584;2023-04-25T09:11:56;16.50;58.60
37782;DHT22;23621;50.878;4.584;2023-04-25T09:15:02;16.70;58.00
37782;DHT22;23621;50.878;4.584;2023-04-25T09:17:56;16.80;56.80
37782;DHT22;23621;50.878;4.584;2023-04-25T09:20:43;17.00;57.20
37782;DHT22;23621;50.878;4.584;2023-04-25T09:23:49;17.00;56.70
37782;DHT22;23621;50.878;4.584;2023-04-25T09:26:39;16.90;55.90
37782;DHT22;23621;50.878;4.584;2023-04-25T09:29:36;16.80;56.30
37782;DHT22;23621;50.878;4.584;2023-04-25T09:32:26;16.70;56.40
37782;DHT22;23621;50.878;4.584;2023-04-25T09:35:26;16.60;56.40
37782;DHT22;23621;50.878;4.584;2023-04-25T09:38:14;16.50;56.70
37782;DHT22;23621;50.878;4.584;2023-04-25T09:41:03;16.40;56.90
37782;DHT22;23621;50.878;4.584;2023-04-25T09:43:50;16.40;57.30
37782;DHT22;23621;50.878;4.584;2023-04-25T09:46:37;16.40;57.80
37782;DHT22;23621;50.878;4.584;2023-04-25T09:49:26;16.40;57.90
37782;DHT22;23621;50.878;4.584;2023-04-25T09:52:16;16.40;58.00
37782;DHT22;23621;50.878;4.584;2023-04-25T09:55:04;16.40;58.00
37782;DHT22;23621;50.878;4.584;2023-04-25T09:57:54;16.40;57.70
37782;DHT22;23621;50.878;4.584;2023-04-25T10:00:44;16.40;57.30
37782;DHT22;23621;50.878;4.584;2023-04-25T10:03:36;16.50;57.00
37782;DHT22;23621;50.878;4.584;2023-04-25T10:06:25;16.60;56.90
37782;DHT22;23621;50.878;4.584;2023-04-25T10:09:14;16.70;56.50
37782;DHT22;23621;50.878;4.584;2023-04-25T10:12:03;16.90;56.30
37782;DHT22;23621;50.878;4.584;2023-04-25T10:14:50;17.00;55.90
37782;DHT22;23621;50.878;4.584;2023-04-25T10:17:39;17.10;55.60
37782;DHT22;23621;50.878;4.584;2023-04-25T10:20:27;17.10;55.70
37782;DHT22;23621;50.878;4.584;2023-04-25T10:23:15;17.20;55.80
37782;DHT22;23621;50.878;4.584;2023-04-25T10:26:04;17.10;55.10
37782;DHT22;23621;50.878;4.584;2023-04-25T10:28:56;17.10;54.90
37782;DHT22;23621;50.878;4.584;2023-04-25T10:31:46;17.10;54.50
37782;DHT22;23621;50.878;4.584;2023-04-25T10:34:39;17.00;54.30
37782;DHT22;23621;50.878;4.584;2023-04-25T10:37:27;17.00;54.20
37782;DHT22;23621;50.878;4.584;2023-04-25T10:40:21;17.00;54.60
37782;DHT22;23621;50.878;4.584;2023-04-25T10:46:26;17.40;53.40
37782;DHT22;23621;50.878;4.584;2023-04-25T10:55:11;17.90;53.50
37782;DHT22;23621;50.878;4.584;2023-04-25T10:58:04;17.90;53.00
37782;DHT22;23621;50.878;4.584;2023-04-25T11:00:51;18.00;53.00
37782;DHT22;23621;50.878;4.584;2023-04-25T11:03:43;17.90;52.70
37782;DHT22;23621;50.878;4.584;2023-04-25T11:06:53;17.70;53.10
37782;DHT22;23621;50.878;4.584;2023-04-25T11:09:54;17.60;52.60
37782;DHT22;23621;50.878;4.584;2023-04-25T11:12:41;17.50;53.40
37782;DHT22;23621;50.878;4.584;2023-04-25T11:15:29;17.50;53.10
37782;DHT22;23621;50.878;4.584;2023-04-25T11:18:16;17.30;53.00
37782;DHT22;23621;50.878;4.584;2023-04-25T11:21:05;17.20;53.70
37782;DHT22;23621;50.878;4.584;2023-04-25T11:23:55;17.00;54.50
37782;DHT22;23621;50.878;4.584;2023-04-25T11:26:44;16.90;55.10
37782;DHT22;23621;50.878;4.584;2023-04-25T11:29:35;16.80;55.80
37782;DHT22;23621;50.878;4.584;2023-04-25T11:32:23;16.70;56.40
37782;DHT22;23621;50.878;4.584;2023-04-25T11:35:12;16.70;57.20
37782;DHT22;23621;50.878;4.584;2023-04-25T11:38:01;16.70;57.80
37782;DHT22;23621;50.878;4.584;2023-04-25T11:40:54;16.80;58.20
37782;DHT22;23621;50.878;4.584;2023-04-25T11:43:44;16.80;59.00
37782;DHT22;23621;50.878;4.584;2023-04-25T11:46:33;17.00;59.10
37782;DHT22;23621;50.878;4.584;2023-04-25T11:49:21;17.10;58.80
37782;DHT22;23621;50.878;4.584;2023-04-25T11:52:09;17.30;58.50
37782;DHT22;23621;50.878;4.584;2023-04-25T11:54:56;17.40;58.20
37782;DHT22;23621;50.878;4.584;2023-04-25T11:57:46;17.50;58.20
37782;DHT22;23621;50.878;4.584;2023-04-25T12:00:34;17.50;57.60
37782;DHT22;23621;50.878;4.584;2023-04-25T12:03:21;17.50;56.60
37782;DHT22;23621;50.878;4.584;2023-04-25T12:06:17;17.50;55.70
37782;DHT22;23621;50.878;4.584;2023-04-25T12:09:07;17.50;55.60
37782;DHT22;23621;50.878;4.584;2023-04-25T12:11:57;17.60;55.40
37782;DHT22;23621;50.878;4.584;2023-04-25T12:14:51;17.60;55.40
37782;DHT22;23621;50.878;4.584;2023-04-25T12:17:38;17.50;55.10
37782;DHT22;23621;50.878;4.584;2023-04-25T12:20:26;17.70;55.60
37782;DHT22;23621;50.878;4.584;2023-04-25T12:23:13;17.90;55.30
37782;DHT22;23621;50.878;4.584;2023-04-25T12:26:00;18.10;54.10
37782;DHT22;23621;50.878;4.584;2023-04-25T12:28:49;18.00;53.30
37782;DHT22;23621;50.878;4.584;2023-04-25T12:31:37;18.10;53.20
37782;DHT22;23621;50.878;4.584;2023-04-25T12:34:24;18.10;52.80
37782;DHT22;23621;50.878;4.584;2023-04-25T12:37:12;18.10;51.70
37782;DHT22;23621;50.878;4.584;2023-04-25T12:39:59;18.00;50.80
37782;DHT22;23621;50.878;4.584;2023-04-25T12:42:46;17.90;51.00
37782;DHT22;23621;50.878;4.584;2023-04-25T12:45:34;17.80;50.60
37782;DHT22;23621;50.878;4.584;2023-04-25T12:48:21;17.50;50.70
37782;DHT22;23621;50.878;4.584;2023-04-25T12:51:08;17.30;49.80
37782;DHT22;23621;50.878;4.584;2023-04-25T12:53:56;17.40;50.70
37782;DHT22;23621;50.878;4.584;2023-04-25T12:56:43;17.60;51.10
37782;DHT22;23621;50.878;4.584;2023-04-25T12:59:30;17.50;49.50
37782;DHT22;23621;50.878;4.584;2023-04-25T13:02:18;17.60;48.80
37782;DHT22;23621;50.878;4.584;2023-04-25T13:05:05;17.90;49.80
37782;DHT22;23621;50.878;4.584;2023-04-25T13:07:53;17.90;49.10
37782;DHT22;23621;50.878;4.584;2023-04-25T13:10:40;18.00;49.00
37782;DHT22;23621;50.878;4.584;2023-04-25T13:13:27;18.10;48.90
37782;DHT22;23621;50.878;4.584;2023-04-25T13:16:15;18.20;49.10
37782;DHT22;23621;50.878;4.584;2023-04-25T13:19:03;18.30;49.80
37782;DHT22;23621;50.878;4.584;2023-04-25T13:21:50;18.30;50.00
37782;DHT22;23621;50.878;4.584;2023-04-25T13:24:37;18.20;50.30
37782;DHT22;23621;50.878;4.584;2023-04-25T13:27:24;18.10;50.00
37782;DHT22;23621;50.878;4.584;2023-04-25T13:30:12;18.10;50.40
37782;DHT22;23621;50.878;4.584;2023-04-25T13:33:31;18.10;51.70
37782;DHT22;23621;50.878;4.584;2023-04-25T13:36:20;17.90;51.80
37782;DHT22;23621;50.878;4.584;2023-04-25T13:39:08;17.80;49.50
37782;DHT22;23621;50.878;4.584;2023-04-25T13:41:55;17.90;50.00
37782;DHT22;23621;50.878;4.584;2023-04-25T13:44:43;18.00;50.00
37782;DHT22;23621;50.878;4.584;2023-04-25T13:47:30;18.10;49.50
37782;DHT22;23621;50.878;4.584;2023-04-25T13:50:18;18.10;49.00
37782;DHT22;23621;50.878;4.584;2023-04-25T13:53:05;18.00;49.30
37782;DHT22;23621;50.878;4.584;2023-04-25T13:55:52;18.00;48.70
37782;DHT22;23621;50.878;4.584;2023-04-25T13:58:39;17.90;49.00
37782;DHT22;23621;50.878;4.584;2023-04-25T14:01:27;18.10;49.30
37782;DHT22;23621;50.878;4.584;2023-04-25T14:04:15;18.30;49.40
37782;DHT22;23621;50.878;4.584;2023-04-25T14:07:03;18.50;50.00
37782;DHT22;23621;50.878;4.584;2023-04-25T14:09:50;18.60;49.70
37782;DHT22;23621;50.878;4.584;2023-04-25T14:12:37;18.70;49.60
37782;DHT22;23621;50.878;4.584;2023-04-25T14:15:24;18.70;49.40
37782;DHT22;23621;50.878;4.584;2023-04-25T14:18:12;18.70;49.00
37782;DHT22;23621;50.878;4.584;2023-04-25T14:20:59;18.70;48.70
37782;DHT22;23621;50.878;4.584;2023-04-25T14:23:47;18.70;49.10
37782;DHT22;23621;50.878;4.584;2023-04-25T14:26:35;18.70;49.50
37782;DHT22;23621;50.878;4.584;2023-04-25T14:29:22;18.90;49.40
37782;DHT22;23621;50.878;4.584;2023-04-25T14:32:10;18.90;48.60
37782;DHT22;23621;50.878;4.584;2023-04-25T14:34:57;18.90;48.60
37782;DHT22;23621;50.878;4.584;2023-04-25T14:37:45;19.00;48.80
37782;DHT22;23621;50.878;4.584;2023-04-25T14:40:32;19.10;48.80
37782;DHT22;23621;50.878;4.584;2023-04-25T14:43:19;19.10;48.70
37782;DHT22;23621;50.878;4.584;2023-04-25T14:46:07;19.10;48.10
37782;DHT22;23621;50.878;4.584;2023-04-25T14:48:54;19.30;47.20
37782;DHT22;23621;50.878;4.584;2023-04-25T14:51:43;19.40;47.50
37782;DHT22;23621;50.878;4.584;2023-04-25T14:54:30;19.50;47.60
37782;DHT22;23621;50.878;4.584;2023-04-25T14:57:18;19.50;47.20
37782;DHT22;23621;50.878;4.584;2023-04-25T15:00:05;19.50;47.10
37782;DHT22;23621;50.878;4.584;2023-04-25T15:02:56;19.50;45.90
37782;DHT22;23621;50.878;4.584;2023-04-25T15:05:44;19.50;46.80
37782;DHT22;23621;50.878;4.584;2023-04-25T15:08:31;19.50;47.40
37782;DHT22;23621;50.878;4.584;2023-04-25T15:11:19;19.50;47.80
37782;DHT22;23621;50.878;4.584;2023-04-25T15:14:09;19.60;47.60
37782;DHT22;23621;50.878;4.584;2023-04-25T15:16:57;19.80;47.50
37782;DHT22;23621;50.878;4.584;2023-04-25T15:19:44;19.80;48.20
37782;DHT22;23621;50.878;4.584;2023-04-25T15:22:31;20.00;48.60
37782;DHT22;23621;50.878;4.584;2023-04-25T15:25:19;20.10;47.60
37782;DHT22;23621;50.878;4.584;2023-04-25T15:28:06;20.30;48.00
37782;DHT22;23621;50.878;4.584;2023-04-25T15:30:53;20.90;48.00
37782;DHT22;23621;50.878;4.584;2023-04-25T15:33:40;21.90;45.60
37782;DHT22;23621;50.878;4.584;2023-04-25T15:36:28;23.50;45.20
37782;DHT22;23621;50.878;4.584;2023-04-25T15:39:15;25.20;44.30
37782;DHT22;23621;50.878;4.584;2023-04-25T15:42:02;26.90;43.00
37782;DHT22;23621;50.878;4.584;2023-04-25T15:44:50;27.70;40.80
37782;DHT22;23621;50.878;4.584;2023-04-25T15:47:38;28.90;39.70
37782;DHT22;23621;50.878;4.584;2023-04-25T15:50:25;29.90;38.20
37782;DHT22;23621;50.878;4.584;2023-04-25T15:53:13;30.70;38.10
37782;DHT22;23621;50.878;4.584;2023-04-25T15:56:00;31.60;37.30
37782;DHT22;23621;50.878;4.584;2023-04-25T15:58:47;32.30;36.40
37782;DHT22;23621;50.878;4.584;2023-04-25T16:01:35;32.80;34.80
37782;DHT22;23621;50.878;4.584;2023-04-25T16:04:22;33.30;34.00
37782;DHT22;23621;50.878;4.584;2023-04-25T16:07:12;33.60;33.00
37782;DHT22;23621;50.878;4.584;2023-04-25T16:09:59;32.60;31.70
37782;DHT22;23621;50.878;4.584;2023-04-25T16:12:48;32.60;32.40
37782;DHT22;23621;50.878;4.584;2023-04-25T16:15:35;33.00;32.30
37782;DHT22;23621;50.878;4.584;2023-04-25T16:18:23;33.30;31.20
37782;DHT22;23621;50.878;4.584;2023-04-25T16:21:10;33.40;31.10
37782;DHT22;23621;50.878;4.584;2023-04-25T16:24:03;33.00;31.10
37782;DHT22;23621;50.878;4.584;2023-04-25T16:26:50;31.70;31.40
37782;DHT22;23621;50.878;4.584;2023-04-25T16:29:38;30.20;32.90
37782;DHT22;23621;50.878;4.584;2023-04-25T16:32:25;28.60;34.20
37782;DHT22;23621;50.878;4.584;2023-04-25T16:35:12;27.30;35.20
37782;DHT22;23621;50.878;4.584;2023-04-25T16:38:00;26.10;36.10
37782;DHT22;23621;50.878;4.584;2023-04-25T16:40:47;25.10;36.90
37782;DHT22;23621;50.878;4.584;2023-04-25T16:43:34;24.30;37.50
37782;DHT22;23621;50.878;4.584;2023-04-25T16:46:22;23.60;38.20
37782;DHT22;23621;50.878;4.584;2023-04-25T16:49:09;22.90;38.20
37782;DHT22;23621;50.878;4.584;2023-04-25T16:51:57;22.40;38.60
37782;DHT22;23621;50.878;4.584;2023-04-25T16:54:44;22.00;39.30
37782;DHT22;23621;50.878;4.584;2023-04-25T16:57:32;21.60;39.60
37782;DHT22;23621;50.878;4.584;2023-04-25T17:00:20;21.30;40.20
37782;DHT22;23621;50.878;4.584;2023-04-25T17:03:07;21.20;40.60
37782;DHT22;23621;50.878;4.584;2023-04-25T17:05:55;20.90;40.60
37782;DHT22;23621;50.878;4.584;2023-04-25T17:08:46;20.70;41.10
37782;DHT22;23621;50.878;4.584;2023-04-25T17:11:34;20.60;41.20
37782;DHT22;23621;50.878;4.584;2023-04-25T17:14:21;20.40;42.50
37782;DHT22;23621;50.878;4.584;2023-04-25T17:17:08;20.30;42.50
37782;DHT22;23621;50.878;4.584;2023-04-25T17:19:56;20.20;42.40
37782;DHT22;23621;50.878;4.584;2023-04-25T17:22:43;20.20;42.50
37782;DHT22;23621;50.878;4.584;2023-04-25T17:25:30;20.10;42.30
37782;DHT22;23621;50.878;4.584;2023-04-25T17:28:18;20.00;42.50
37782;DHT22;23621;50.878;4.584;2023-04-25T17:31:06;19.90;42.70
37782;DHT22;23621;50.878;4.584;2023-04-25T17:33:54;19.90;43.00
37782;DHT22;23621;50.878;4.584;2023-04-25T17:36:41;19.90;43.10
37782;DHT22;23621;50.878;4.584;2023-04-25T17:39:28;19.90;43.30
37782;DHT22;23621;50.878;4.584;2023-04-25T17:42:15;20.50;42.90
37782;DHT22;23621;50.878;4.584;2023-04-25T17:45:03;21.80;41.80
37782;DHT22;23621;50.878;4.584;2023-04-25T17:47:51;23.20;40.60
37782;DHT22;23621;50.878;4.584;2023-04-25T17:50:38;24.30;39.40